地図

経路データ

SID SEASON NUMBER BASIN SUBBASIN NAME ISO_TIME NATURE LAT LON WMO_WIND WMO_PRES WMO_AGENCY TRACK_TYPE DIST2LAND LANDFALL IFLAG USA_AGENCY USA_ATCF_ID USA_LAT USA_LON USA_RECORD USA_STATUS USA_WIND USA_PRES USA_SSHS USA_R34_NE USA_R34_SE USA_R34_SW USA_R34_NW USA_R50_NE USA_R50_SE USA_R50_SW USA_R50_NW USA_R64_NE USA_R64_SE USA_R64_SW USA_R64_NW USA_POCI USA_ROCI USA_RMW USA_EYE TOKYO_LAT TOKYO_LON TOKYO_GRADE TOKYO_WIND TOKYO_PRES TOKYO_R50_DIR TOKYO_R50_LONG TOKYO_R50_SHORT TOKYO_R30_DIR TOKYO_R30_LONG TOKYO_R30_SHORT TOKYO_LAND CMA_LAT CMA_LON CMA_CAT CMA_WIND CMA_PRES HKO_LAT HKO_LON HKO_CAT HKO_WIND HKO_PRES NEWDELHI_LAT NEWDELHI_LON NEWDELHI_GRADE NEWDELHI_WIND NEWDELHI_PRES NEWDELHI_CI NEWDELHI_DP NEWDELHI_POCI REUNION_LAT REUNION_LON REUNION_TYPE REUNION_WIND REUNION_PRES REUNION_TNUM REUNION_CI REUNION_RMW REUNION_R34_NE REUNION_R34_SE REUNION_R34_SW REUNION_R34_NW REUNION_R50_NE REUNION_R50_SE REUNION_R50_SW REUNION_R50_NW REUNION_R64_NE REUNION_R64_SE REUNION_R64_SW REUNION_R64_NW BOM_LAT BOM_LON BOM_TYPE BOM_WIND BOM_PRES BOM_TNUM BOM_CI BOM_RMW BOM_R34_NE BOM_R34_SE BOM_R34_SW BOM_R34_NW BOM_R50_NE BOM_R50_SE BOM_R50_SW BOM_R50_NW BOM_R64_NE BOM_R64_SE BOM_R64_SW BOM_R64_NW BOM_ROCI BOM_POCI BOM_EYE BOM_POS_METHOD BOM_PRES_METHOD NADI_LAT NADI_LON NADI_CAT NADI_WIND NADI_PRES WELLINGTON_LAT WELLINGTON_LON WELLINGTON_WIND WELLINGTON_PRES DS824_LAT DS824_LON DS824_STAGE DS824_WIND DS824_PRES TD9636_LAT TD9636_LON TD9636_STAGE TD9636_WIND TD9636_PRES TD9635_LAT TD9635_LON TD9635_WIND TD9635_PRES TD9635_ROCI NEUMANN_LAT NEUMANN_LON NEUMANN_CLASS NEUMANN_WIND NEUMANN_PRES MLC_LAT MLC_LON MLC_CLASS MLC_WIND MLC_PRES USA_GUST BOM_GUST BOM_GUST_PER REUNION_GUST REUNION_GUST_PER USA_SEAHGT USA_SEARAD_NE USA_SEARAD_SE USA_SEARAD_SW USA_SEARAD_NW STORM_SPEED STORM_DIR
1970060S14147 1970 25 SP EA NOT_NAMED 1970-03-01 05:00:00 NR -13.6000 147.000 1003 bom main 241 233 ______O___O___ -1 -13.6000 147.000 1003 -13.6000 147.000 1 20 5 0
1970060S14147 1970 25 SP EA NOT_NAMED 1970-03-01 06:00:00 TS -13.6830 147.002 main 233 227 O_____P__OP___ jtwc_sh SH211970 -13.7000 147.000 20 -1 -13.6667 147.000 1003 -13.7000 147.000 TC 25 1003 -13.6738 147.007 1 20 5 0
1970060S14147 1970 25 SP EA NOT_NAMED 1970-03-01 08:00:00 TS -13.8254 147.001 1003 bom main 227 220 P_____O__PP___ SH211970 -13.8412 146.992 20 -1 -13.8000 147.000 1003 -13.8393 146.992 TC 23 1003 -13.8203 147.020 1 20 4 185
1970060S14147 1970 25 SP EA NOT_NAMED 1970-03-01 09:00:00 TS -13.8952 147.001 main 220 214 P_____P__PP___ SH211970 -13.9100 146.990 20 -1 -13.8667 147.000 1003 -13.9075 146.990 TC 22 1004 -13.8924 147.027 1 20 4 175
1970060S14147 1970 25 SP EA NOT_NAMED 1970-03-01 11:00:00 TS -14.0302 147.004 1005 bom main 214 208 P_____O__PP___ SH211970 -14.0401 146.993 20 -1 -14.0000 147.000 1005 -14.0384 146.993 TC 20 1004 -14.0325 147.042 1 20 4 0
1970060S14147 1970 25 SP EA NOT_NAMED 1970-03-01 12:00:00 TS -14.0933 147.009 main 208 203 O_____P__OP___ jtwc_sh SH211970 -14.1000 147.000 20 -1 -14.0667 146.995 1005 -14.1000 147.000 TC 20 1005 -14.1000 147.051 1 20 4 179
1970060S14147 1970 25 SP EA NOT_NAMED 1970-03-01 14:00:00 TS -14.2115 147.029 1005 bom main 203 199 P_____O__PP___ SH211970 -14.2079 147.025 20 -1 -14.2000 147.000 1005 -14.2133 147.025 TC 20 1004 -14.2284 147.068 1 20 4 165
1970060S14147 1970 25 SP EA NOT_NAMED 1970-03-01 15:00:00 TS -14.2682 147.047 main 199 199 P_____P__PP___ SH211970 -14.2575 147.042 20 -1 -14.2721 147.031 1004 -14.2650 147.042 TC 20 1004 -14.2887 147.078 1 20 3 159
1970060S14147 1970 25 SP EA NOT_NAMED 1970-03-01 17:00:00 TS -14.3727 147.088 1004 bom main 205 205 P_____O__PO___ SH211970 -14.3526 147.081 20 -1 -14.4000 147.100 1004 -14.3583 147.081 TC 20 1004 -14.4000 147.100 1 20 3 162
1970060S14147 1970 25 SP EA NOT_NAMED 1970-03-01 18:00:00 TS -14.4183 147.103 main 205 201 O_____P__OP___ jtwc_sh SH211970 -14.4000 147.100 20 -1 -14.4412 147.102 1004 -14.4000 147.100 TC 20 1004 -14.4505 147.112 1 20 3 162
1970060S14147 1970 25 SP EA NOT_NAMED 1970-03-01 20:00:00 TS -14.5034 147.128 1005 bom main 201 201 P_____O__PP___ SH211970 -14.5054 147.133 21 -1 -14.5000 147.100 1005 -14.4637 147.133 TC 18 1004 -14.5425 147.139 1 21 3 165
1970060S14147 1970 25 SP EA NOT_NAMED 1970-03-01 21:00:00 TS -14.5452 147.147 main 201 201 P_____P__PP___ SH211970 -14.5575 147.150 22 -1 -14.5333 147.131 1005 -14.4925 147.150 TC 17 1005 -14.5849 147.153 1 21 3 154
1970060S14147 1970 25 SP EA NOT_NAMED 1970-03-01 23:00:00 TS -14.6269 147.187 1006 bom main 208 198 P_____O__PP___ SH211970 -14.6557 147.183 24 -1 -14.6000 147.200 1006 -14.5579 147.183 TC 15 1005 -14.6650 147.185 1 22 1 251
1970060S14147 1970 25 SP EA NOT_NAMED 1970-03-02 00:00:00 TS -14.5634 147.085 main 198 188 O_____P__OP___ jtwc_sh SH211970 -14.7000 147.200 25 -1 -14.1133 146.624 1006 -14.6000 147.200 TC 15 1006 -14.7035 147.202 1 22 3 162
1970060S14147 1970 25 SP EA NOT_NAMED 1970-03-02 02:00:00 TS -14.7461 147.228 1006 bom main 204 204 P_____O__PP___ SH211970 -14.7637 147.233 25 -1 -14.7000 147.200 1006 -14.7230 147.233 TC 16 1005 -14.7800 147.239 1 23 12 138
1970060S14147 1970 25 SP EA NOT_NAMED 1970-03-02 02:30:00 TS -14.9426 147.435 1005 bom main 219 219 P_____O__PP___ SH211970 -14.7781 147.242 25 -1 -15.6000 148.200 1005 -14.7573 147.242 TC 17 1005 -14.7993 147.248 1 23 25 135
1970060S14147 1970 25 SP EA NOT_NAMED 1970-03-02 03:00:00 TS -15.0448 147.536 main 227 208 P_____P__PP___ SH211970 -14.7925 147.250 25 -1 -16.0275 148.670 1004 -14.7925 147.250 TC 17 1005 -14.8188 147.258 1 24 4 291
1970060S14147 1970 25 SP EA NOT_NAMED 1970-03-02 05:00:00 TS -14.8899 147.290 1004 bom main 208 208 P_____O__PO___ SH211970 -14.8579 147.283 25 -1 -14.9000 147.300 1004 -14.9338 147.283 TC 19 1004 -14.9000 147.300 1 25 5 296
1970060S14147 1970 25 SP EA NOT_NAMED 1970-03-02 06:00:00 TS -14.9258 147.283 main 208 205 O_____P__OP___ jtwc_sh SH211970 -14.9000 147.300 25 -1 -14.8763 147.201 1004 -15.0000 147.300 TC 20 1004 -14.9528 147.312 1 25 4 167
1970060S14147 1970 25 SP EA NOT_NAMED 1970-03-02 08:00:00 TS -15.0666 147.321 1004 bom main 205 205 P_____O__PP___ SH211970 -15.0284 147.322 25 -1 -15.1000 147.300 1004 -15.1133 147.322 TC 20 1004 -15.0630 147.335 1 25 4 165
1970060S14147 1970 25 SP EA NOT_NAMED 1970-03-02 09:00:00 TS -15.1312 147.336 main 205 204 P_____P__PP___ SH211970 -15.1000 147.335 25 -1 -15.1721 147.325 1004 -15.1650 147.335 TC 20 1004 -15.1191 147.349 1 25 4 165
1970060S14147 1970 25 SP EA NOT_NAMED 1970-03-02 11:00:00 TS -15.2534 147.380 1005 bom main 214 214 P_____O__PP___ SH211970 -15.2395 147.372 25 -1 -15.3000 147.400 1005 -15.2583 147.372 TC 20 1004 -15.2298 147.383 1 25 4 159
1970060S14147 1970 25 SP EA NOT_NAMED 1970-03-02 12:00:00 TS -15.3048 147.408 main 214 214 O_____P__OP___ jtwc_sh SH211970 -15.3000 147.400 25 -1 -15.3412 147.433 1004 -15.3000 147.400 TC 20 1005 -15.2830 147.405 1 25 3 148
1970060S14147 1970 25 SP EA NOT_NAMED 1970-03-02 14:00:00 TS -15.3875 147.476 1004 bom main 225 225 P_____O__PP___ SH211970 -15.3879 147.473 25 -1 -15.4000 147.500 1004 -15.3800 147.468 TC 21 1004 -15.3817 147.463 1 25 3 139
1970060S14147 1970 25 SP EA NOT_NAMED 1970-03-02 15:00:00 TS -15.4238 147.516 main 225 225 P_____P__PP___ SH211970 -15.4225 147.520 25 -1 -15.4333 147.528 1003 -15.4149 147.513 TC 22 1004 -15.4258 147.502 1 25 3 126
1970060S14147 1970 25 SP EA NOT_NAMED 1970-03-02 17:00:00 TS -15.4860 147.619 1003 bom main 234 234 P_____O__PO___ SH211970 -15.4776 147.633 25 -1 -15.5000 147.600 1003 -15.4750 147.628 TC 24 1003 -15.5000 147.600 1 25 4 119
1970060S14147 1970 25 SP EA NOT_NAMED 1970-03-02 18:00:00 TS -15.5130 147.683 main 244 244 O_____P__OP___ jtwc_sh SH211970 -15.5000 147.700 25 -1 -15.5387 147.648 1003 -15.5000 147.700 TC 25 1003 -15.5264 147.665 1 24 4 110
1970060S14147 1970 25 SP EA NOT_NAMED 1970-03-02 20:00:00 TS -15.5610 147.838 1003 bom main 252 252 P_____O__PP___ SH211970 -15.5467 147.845 23 -1 -15.6000 147.800 1003 -15.5467 147.882 TC 23 1003 -15.5651 147.818 1 23 5 104
1970060S14147 1970 25 SP EA NOT_NAMED 1970-03-02 21:00:00 TS -15.5763 147.934 main 262 262 P_____P__PP___ SH211970 -15.5650 147.928 22 -1 -15.6079 147.928 1003 -15.5651 147.985 TC 22 1004 -15.5784 147.904 1 23 6 96
1970060S14147 1970 25 SP EA NOT_NAMED 1970-03-02 23:00:00 TS -15.5940 148.140 1005 bom main 282 282 P_____O__PP___ SH211970 -15.5917 148.106 20 -1 -15.6000 148.200 1005 -15.5917 148.198 TC 20 1004 -15.5952 148.090 1 22 6 95
1970060S14147 1970 25 SP EA NOT_NAMED 1970-03-03 00:00:00 TS -15.5999 148.233 main 291 291 O_____P__OP___ jtwc_sh SH211970 -15.6000 148.200 20 -1 -15.6000 148.277 1005 -15.6000 148.300 TC 20 1005 -15.5996 148.189 1 22 5 92
1970060S14147 1970 25 SP EA NOT_NAMED 1970-03-03 02:00:00 TS -15.6053 148.412 1005 bom main 309 309 P_____O__PP___ SH211970 -15.6079 148.398 20 -1 -15.6000 148.400 1005 -15.6079 148.475 TC 21 1003 -15.6026 148.393 1 21 5 91
1970060S14147 1970 25 SP EA NOT_NAMED 1970-03-03 03:00:00 TS -15.6049 148.509 main 318 318 P_____P__PP___ SH211970 -15.6075 148.500 20 -1 -15.6000 148.492 1004 -15.6074 148.558 TC 22 1003 -15.6022 148.496 1 20 6 89
1970060S14147 1970 25 SP EA NOT_NAMED 1970-03-03 05:00:00 TS -15.6016 148.705 1002 bom main 337 337 P_____O__PO___ SH211970 -15.6026 148.703 20 -1 -15.6000 148.700 1002 -15.6026 148.719 TC 24 1002 -15.6000 148.700 1 20 6 89
1970060S14147 1970 25 SP EA NOT_NAMED 1970-03-03 06:00:00 TS -15.5999 148.799 main 346 346 O_____P__OP___ jtwc_sh SH211970 -15.6000 148.800 20 -1 -15.6000 148.805 1001 -15.6000 148.800 TC 25 1002 -15.5996 148.790 1 20 5 89
1970060S14147 1970 25 SP EA NOT_NAMED 1970-03-03 08:00:00 TS -15.5989 148.974 1001 bom main 366 366 P_____O__PP___ SH211970 -15.5999 148.969 20 -1 -15.6000 149.000 1001 -15.6000 148.961 TC 25 1002 -15.5949 148.971 1 20 5 90
1970060S14147 1970 25 SP EA NOT_NAMED 1970-03-03 09:00:00 TS -15.5982 149.054 main 375 375 P_____P__PP___ SH211970 -15.5999 149.050 20 -1 -15.6000 149.064 1001 -15.5999 149.043 TC 25 1002 -15.5914 149.061 1 20 5 90
1970060S14147 1970 25 SP EA NOT_NAMED 1970-03-03 11:00:00 TS -15.5969 149.216 1002 bom main 385 385 P_____O__PP___ SH211970 -15.6000 149.214 20 -1 -15.6000 149.200 1002 -15.6000 149.211 TC 25 1002 -15.5848 149.243 1 20 5 90
1970060S14147 1970 25 SP EA NOT_NAMED 1970-03-03 12:00:00 TS -15.5965 149.312 main 395 395 O_____P__OP___ jtwc_sh SH211970 -15.6000 149.300 20 -1 -15.6000 149.328 1002 -15.6000 149.300 TC 25 1002 -15.5825 149.334 1 20 6 89
1970060S14147 1970 25 SP EA NOT_NAMED 1970-03-03 14:00:00 TS -15.5921 149.519 1002 bom main 414 414 P_____O__PP___ SH211970 -15.5946 149.492 20 -1 -15.6000 149.600 1002 -15.5891 149.492 TC 26 1001 -15.5824 149.518 1 20 6 89
1970060S14147 1970 25 SP EA NOT_NAMED 1970-03-03 15:00:00 TS -15.5900 149.613 main 424 424 P_____P__PP___ SH211970 -15.5925 149.593 20 -1 -15.5945 149.677 1001 -15.5850 149.593 TC 27 1001 -15.5854 149.611 1 20 5 91
1970060S14147 1970 25 SP EA NOT_NAMED 1970-03-03 17:00:00 TS -15.5954 149.798 1001 bom main 443 443 P_____O__PO___ SH211970 -15.5943 149.797 20 -1 -15.6000 149.800 1001 -15.5886 149.797 TC 29 1001 -15.6000 149.800 1 20 5 94
1970060S14147 1970 25 SP EA NOT_NAMED 1970-03-03 18:00:00 TS -15.6078 149.898 main 452 452 O_____P__OP___ jtwc_sh SH211970 -15.6000 149.900 20 -1 -15.6254 149.892 1001 -15.6000 149.900 TC 30 1001 -15.6137 149.895 1 20 6 101
1970060S14147 1970 25 SP EA NOT_NAMED 1970-03-03 20:00:00 TS -15.6491 150.098 1001 bom main 471 466 P_____O__PP___ SH211970 -15.6200 150.100 20 -1 -15.7000 150.100 1001 -15.6563 150.100 TC 28 1001 -15.6493 150.089 1 20 6 103
1970060S14147 1970 25 SP EA NOT_NAMED 1970-03-03 21:00:00 TS -15.6744 150.197 main 476 476 P_____P__PP___ SH211970 -15.6350 150.200 20 -1 -15.7388 150.200 1001 -15.6925 150.200 TC 27 1001 -15.6707 150.187 1 20 6 105
1970060S14147 1970 25 SP EA NOT_NAMED 1970-03-03 23:00:00 TS -15.7274 150.397 1002 bom main 496 496 P_____O__PP___ SH211970 -15.6750 150.400 20 -1 -15.8000 150.400 1002 -15.7671 150.400 TC 25 1001 -15.7198 150.385 1 20 6 105
1970060S14147 1970 25 SP EA NOT_NAMED 1970-03-04 00:00:00 TS -15.7499 150.497 main 506 501 O_____P__OP___ jtwc_sh SH211970 -15.7000 150.500 20 -1 -15.8025 150.500 1001 -15.8000 150.500 TC 25 1002 -15.7470 150.485 1 20 6 103
1970060S14147 1970 25 SP EA NOT_NAMED 1970-03-04 02:00:00 TS -15.7917 150.697 1001 bom main 521 521 P_____O__PP___ SH211970 -15.7587 150.700 20 -1 -15.8000 150.700 1001 -15.8357 150.695 TC 26 1001 -15.8055 150.689 1 20 6 104
1970060S14147 1970 25 SP EA NOT_NAMED 1970-03-04 03:00:00 TS -15.8193 150.797 main 531 531 P_____P__PP___ SH211970 -15.7925 150.800 20 -1 -15.8254 150.800 1000 -15.8499 150.793 TC 27 1001 -15.8363 150.792 1 20 6 107
1970060S14147 1970 25 SP EA NOT_NAMED 1970-03-04 05:00:00 TS -15.8816 150.999 1000 bom main 540 540 P_____O__PO___ SH211970 -15.8640 151.000 20 -1 -15.9000 151.000 1000 4 -15.8802 150.994 TC 29 1000 -15.9000 151.000 1 20 6 108
1970060S14147 1970 25 SP EA NOT_NAMED 1970-03-04 06:00:00 TS -15.9131 151.100 main 546 542 O_____P__OP___ jtwc_sh SH211970 -15.9000 151.100 20 -1 -15.9333 151.095 1000 -15.9000 151.100 TC 30 1000 -15.9324 151.105 1 20 6 108
1970060S14147 1970 25 SP EA NOT_NAMED 1970-03-04 08:00:00 TS -15.9780 151.310 1001 bom main 548 548 P_____O__PP___ SH211970 -15.9692 151.300 20 -1 -16.0000 151.300 1001 -15.9533 151.331 TC 30 1000 -15.9980 151.318 1 20 7 108
1970060S14147 1970 25 SP EA NOT_NAMED 1970-03-04 09:00:00 TS -16.0119 151.425 main 553 553 P_____P__PP___ SH211970 -16.0026 151.400 20 -1 -16.0334 151.436 1001 -15.9850 151.450 TC 30 1000 -16.0312 151.426 1 20 7 107
1970060S14147 1970 25 SP EA NOT_NAMED 1970-03-04 11:00:00 TS -16.0810 151.657 1001 bom main 560 560 P_____O__PP___ SH211970 -16.0678 151.600 20 -1 -16.1000 151.700 1001 -16.0583 151.686 TC 30 1000 -16.0979 151.642 1 20 7 108
1970060S14147 1970 25 SP EA NOT_NAMED 1970-03-04 12:00:00 TS -16.1185 151.764 main 566 557 O_____P__OP___ jtwc_sh SH211970 -16.1000 151.700 20 -1 -16.1333 151.772 1000 -16.1000 151.800 TC 30 1001 -16.1315 151.751 1 20 6 112
1970060S14147 1970 25 SP EA NOT_NAMED 1970-03-04 14:00:00 TS -16.1970 151.960 1000 bom main 569 569 ______O__PP___ SH211970 -1 -16.2000 151.900 1000 -16.1926 152.012 TC 30 1000 -16.1988 151.970 1 20 6 112
1970060S14147 1970 25 SP EA NOT_NAMED 1970-03-04 15:00:00 TS -16.2338 152.063 main 576 567 ______P__PP___ SH211970 -1 -16.2279 152.018 1000 -16.2425 152.112 TC 30 1000 -16.2326 152.080 1 20 7 109
1970060S14147 1970 25 SP EA NOT_NAMED 1970-03-04 17:00:00 TS -16.3134 152.302 1000 bom main 580 578 ______O__PO___ SH211970 -1 -16.3000 152.300 1000 -16.3468 152.305 TC 30 1000 -16.3000 152.300 1 20 7 111
1970060S14147 1970 25 SP EA NOT_NAMED 1970-03-04 18:00:00 TS -16.3670 152.427 main 578 578 ______P__O____ -1 -16.3587 152.433 1000 -16.4000 152.400 TC 30 1000 1 9 116
1970060S14147 1970 25 SP EA NOT_NAMED 1970-03-04 20:00:00 NR -16.5000 152.700 1001 bom main 591 591 ______O_______ -1 -16.5000 152.700 1001 TC 1 9 117
1970060S14147 1970 25 SP EA NOT_NAMED 1970-03-04 21:00:00 NR -16.5692 152.833 main 591 591 ______P_______ -1 -16.5692 152.833 1001 TC 1 9 117
1970060S14147 1970 25 SP EA NOT_NAMED 1970-03-04 23:00:00 NR -16.7000 153.100 1001 bom main 606 ______O_______ -1 -16.7000 153.100 1001 TC 1 9 117

デジタル台風データ・検索

IBTrACS Databaseについて

本データベースは、米国NOAAが公開する1842年以降の世界の熱帯低気圧のベストトラックデータアーカイブInternational Best Track Archive for Climate Stewardship (IBTrACS)を、ウェブで閲覧しやすい形式に変換したものです。

最終更新日:2021-12-06